createdAt,value
2023-06-20T00:02:16.868Z,12.05
2023-06-20T00:05:07.378Z,10.15
2023-06-20T00:08:16.762Z,9.85
2023-06-20T00:10:47.842Z,14.40
2023-06-20T00:13:19.251Z,11.82
2023-06-20T00:15:48.993Z,10.25
2023-06-20T00:18:21.833Z,10.13
2023-06-20T00:21:11.360Z,11.60
2023-06-20T00:23:45.564Z,10.48
2023-06-20T00:26:18.052Z,9.20
2023-06-20T00:28:48.591Z,12.13
2023-06-20T00:31:21.651Z,11.98
2023-06-20T00:33:53.030Z,8.90
2023-06-20T00:36:27.288Z,10.25
2023-06-20T00:38:58.956Z,11.52
2023-06-20T00:41:28.751Z,10.10
2023-06-20T00:43:57.069Z,12.93
2023-06-20T00:46:33.292Z,10.85
2023-06-20T00:49:15.277Z,12.13
2023-06-20T00:51:47.525Z,10.43
2023-06-20T00:54:56.062Z,10.45
2023-06-20T00:57:27.453Z,11.25
2023-06-20T01:00:16.311Z,10.30
2023-06-20T01:03:13.753Z,11.50
2023-06-20T01:05:54.272Z,11.45
2023-06-20T01:08:51.415Z,9.82
2023-06-20T01:11:49.467Z,9.77
2023-06-20T01:14:30.179Z,8.93
2023-06-20T01:17:06.606Z,11.63
2023-06-20T01:20:14.669Z,12.48
2023-06-20T01:22:58.977Z,9.52
2023-06-20T01:25:56.751Z,10.50
2023-06-20T01:28:40.458Z,13.25
2023-06-20T01:31:37.039Z,11.88
2023-06-20T01:34:29.595Z,10.43
2023-06-20T01:37:02.337Z,10.23
2023-06-20T01:39:40.461Z,10.38
2023-06-20T01:42:40.846Z,9.70
2023-06-20T01:45:12.820Z,9.40
2023-06-20T01:47:45.527Z,12.55
2023-06-20T01:50:16.599Z,8.82
2023-06-20T01:52:54.731Z,11.07
2023-06-20T01:55:50.722Z,15.52
2023-06-20T01:58:45.268Z,9.23
2023-06-20T02:01:21.630Z,11.70
2023-06-20T02:03:53.621Z,10.80
2023-06-20T02:06:38.444Z,7.68
2023-06-20T02:09:09.011Z,9.48
2023-06-20T02:11:40.965Z,7.22
2023-06-20T02:17:41.467Z,6.78
2023-06-20T02:20:11.134Z,7.65
2023-06-20T02:22:44.643Z,12.45
2023-06-20T02:25:37.661Z,11.32
2023-06-20T02:28:16.486Z,9.43
2023-06-20T02:30:51.692Z,7.90
2023-06-20T02:33:41.208Z,10.82
2023-06-20T02:38:59.982Z,7.75
2023-06-20T02:41:32.841Z,10.50
2023-06-20T02:44:09.169Z,9.23
2023-06-20T02:46:53.866Z,8.23
2023-06-20T02:49:36.226Z,8.45
2023-06-20T02:52:40.298Z,7.85
2023-06-20T02:55:14.525Z,8.02
2023-06-20T02:57:50.144Z,8.38
2023-06-20T03:00:21.533Z,8.07
2023-06-20T03:03:15.423Z,8.60
2023-06-20T03:06:07.678Z,7.15
2023-06-20T03:08:44.900Z,8.68
2023-06-20T03:11:36.840Z,9.27
2023-06-20T03:14:25.352Z,9.75
2023-06-20T03:16:56.431Z,10.82
2023-06-20T03:19:28.116Z,8.38
2023-06-20T03:22:31.244Z,11.20
2023-06-20T03:25:03.478Z,10.52
2023-06-20T03:28:19.811Z,11.10
2023-06-20T03:31:28.942Z,8.93
2023-06-20T03:34:00.196Z,8.82
2023-06-20T03:36:29.891Z,8.27
2023-06-20T03:39:05.654Z,8.13
2023-06-20T03:41:34.022Z,10.90
2023-06-20T03:44:02.321Z,10.65
2023-06-20T03:46:32.688Z,8.68
2023-06-20T03:49:04.926Z,11.93
2023-06-20T03:51:33.990Z,7.75
2023-06-20T03:54:04.458Z,9.05
2023-06-20T03:56:38.931Z,12.35
2023-06-20T03:59:10.465Z,9.77
2023-06-20T04:01:41.192Z,10.13
2023-06-20T04:04:17.824Z,8.90
2023-06-20T04:06:55.186Z,7.28
2023-06-20T04:09:26.951Z,9.88
2023-06-20T04:11:56.882Z,8.85
2023-06-20T04:14:38.749Z,7.00
2023-06-20T04:17:11.820Z,10.40
2023-06-20T04:19:44.950Z,8.27
2023-06-20T04:22:36.203Z,9.05
2023-06-20T04:25:18.463Z,10.00
2023-06-20T04:27:55.295Z,8.30
2023-06-20T04:30:25.613Z,11.30
2023-06-20T04:32:55.913Z,8.10
2023-06-20T04:35:42.368Z,9.88
2023-06-20T04:38:14.434Z,8.82
2023-06-20T04:41:03.293Z,9.82
2023-06-20T04:43:34.522Z,10.93
2023-06-20T04:46:08.132Z,9.65
2023-06-20T04:48:37.283Z,12.52
2023-06-20T04:51:09.772Z,8.18
2023-06-20T04:53:41.591Z,11.65
2023-06-20T04:56:43.762Z,7.32
2023-06-20T04:59:13.267Z,9.98
2023-06-20T05:01:45.024Z,7.68
2023-06-20T05:04:14.597Z,7.78
2023-06-20T05:06:47.218Z,12.27
2023-06-20T05:09:19.524Z,12.05
2023-06-20T05:11:47.561Z,9.45
2023-06-20T05:14:15.566Z,9.10
2023-06-20T05:16:45.943Z,10.68
2023-06-20T05:19:14.023Z,11.18
2023-06-20T05:21:44.036Z,10.45
2023-06-20T05:24:12.933Z,9.15
2023-06-20T05:26:43.701Z,11.25
2023-06-20T05:29:11.857Z,9.77
2023-06-20T05:31:42.436Z,12.85
2023-06-20T05:34:10.686Z,12.27
2023-06-20T05:36:38.714Z,11.68
2023-06-20T05:39:12.601Z,15.05
2023-06-20T05:41:40.637Z,11.07
2023-06-20T05:44:11.670Z,11.93
2023-06-20T05:46:39.905Z,12.15
2023-06-20T05:49:12.331Z,9.65
2023-06-20T05:51:48.884Z,11.65
2023-06-20T05:54:24.009Z,12.70
2023-06-20T05:56:58.944Z,10.52
2023-06-20T05:59:41.187Z,11.48
2023-06-20T06:02:09.609Z,11.75
2023-06-20T06:04:39.450Z,12.63
2023-06-20T06:07:08.743Z,11.38
2023-06-20T06:09:38.231Z,12.18
2023-06-20T06:12:07.271Z,12.15
2023-06-20T06:14:35.525Z,16.45
2023-06-20T06:17:03.735Z,9.52
2023-06-20T06:19:31.936Z,17.35
2023-06-20T06:22:04.905Z,16.75
2023-06-20T06:24:33.370Z,17.58
2023-06-20T06:27:04.272Z,13.00
2023-06-20T06:29:34.562Z,11.27
2023-06-20T06:32:04.075Z,12.07
2023-06-20T06:34:33.597Z,15.20
2023-06-20T06:37:02.730Z,12.88
2023-06-20T06:39:30.842Z,13.80
2023-06-20T06:41:59.034Z,13.68
2023-06-20T06:44:30.187Z,13.40
2023-06-20T06:46:58.698Z,16.13
2023-06-20T06:49:28.324Z,14.23
2023-06-20T06:51:57.862Z,13.43
2023-06-20T06:54:25.965Z,13.15
2023-06-20T06:56:54.346Z,18.02
2023-06-20T06:59:24.726Z,15.52
2023-06-20T07:01:54.652Z,17.77
2023-06-20T07:04:27.312Z,12.18
2023-06-20T07:06:55.583Z,16.25
2023-06-20T07:09:23.993Z,15.45
2023-06-20T07:11:52.032Z,17.90
2023-06-20T07:14:20.138Z,17.55
2023-06-20T07:17:03.742Z,16.50
2023-06-20T07:19:34.991Z,15.93
2023-06-20T07:22:04.847Z,15.30
2023-06-20T07:24:33.271Z,17.75
2023-06-20T07:27:25.769Z,19.48
2023-06-20T07:29:56.681Z,19.58
2023-06-20T07:32:24.763Z,13.50
2023-06-20T07:34:54.331Z,13.77
2023-06-20T07:37:22.673Z,14.50
2023-06-20T07:39:51.300Z,14.60
2023-06-20T07:42:19.528Z,19.85
2023-06-20T07:44:52.517Z,14.60
2023-06-20T07:47:21.112Z,13.85
2023-06-20T07:49:49.644Z,17.65
2023-06-20T07:52:20.824Z,19.65
2023-06-20T07:54:52.591Z,17.48
2023-06-20T07:57:32.305Z,15.77
2023-06-20T08:00:11.258Z,16.08
2023-06-20T08:02:43.901Z,18.70
2023-06-20T08:05:14.432Z,13.88
2023-06-20T08:07:43.968Z,17.08
2023-06-20T08:10:13.136Z,14.05
2023-06-20T08:13:01.660Z,16.33
2023-06-20T08:15:32.205Z,21.08
2023-06-20T08:18:00.437Z,13.55
2023-06-20T08:20:28.852Z,17.35
2023-06-20T08:23:05.953Z,14.70
2023-06-20T08:25:36.435Z,21.40
2023-06-20T08:28:14.885Z,16.83
2023-06-20T08:30:44.882Z,15.77
2023-06-20T08:33:21.109Z,14.50
2023-06-20T08:35:51.940Z,13.73
2023-06-20T08:38:23.433Z,14.02
2023-06-20T08:40:52.997Z,14.07
2023-06-20T08:43:23.557Z,13.05
2023-06-20T08:45:56.696Z,11.40
2023-06-20T08:48:27.539Z,11.48
2023-06-20T08:51:01.519Z,14.05
2023-06-20T08:53:31.188Z,9.25
2023-06-20T08:56:02.313Z,13.38
2023-06-20T08:58:33.459Z,9.98
2023-06-20T09:01:01.663Z,11.25
2023-06-20T09:03:29.895Z,10.32
2023-06-20T09:05:59.376Z,10.82
2023-06-20T09:09:01.562Z,10.38
2023-06-20T09:11:37.718Z,9.05
2023-06-20T09:14:07.127Z,8.88
2023-06-20T09:16:42.785Z,9.93
2023-06-20T09:19:17.279Z,10.60
2023-06-20T09:21:46.006Z,9.13
2023-06-20T09:24:18.915Z,8.27
2023-06-20T09:26:48.856Z,8.93
2023-06-20T09:29:20.155Z,8.57
2023-06-20T09:31:50.271Z,8.02
2023-06-20T09:34:19.694Z,11.82
2023-06-20T09:36:48.319Z,9.07
2023-06-20T09:39:21.773Z,11.45
2023-06-20T09:41:52.281Z,7.90
2023-06-20T09:44:20.964Z,6.43
2023-06-20T09:46:52.677Z,5.88
2023-06-20T09:49:21.719Z,7.80
2023-06-20T09:51:56.982Z,9.25
2023-06-20T09:54:35.904Z,9.18
2023-06-20T09:57:10.094Z,8.98
2023-06-20T09:59:43.383Z,10.40
2023-06-20T10:02:13.554Z,13.32
2023-06-20T10:04:45.054Z,8.20
2023-06-20T10:07:16.216Z,8.60
2023-06-20T10:09:53.167Z,5.53
2023-06-20T10:23:54.603Z,8.25
2023-06-20T10:26:24.778Z,6.97
2023-06-20T10:28:58.597Z,7.38
2023-06-20T10:31:27.132Z,6.05
2023-06-20T10:33:55.323Z,19.73
2023-06-20T10:36:33.316Z,13.40
2023-06-20T10:39:11.306Z,7.32
2023-06-20T10:41:43.878Z,8.00
2023-06-20T10:44:32.713Z,17.70
2023-06-20T10:47:02.230Z,7.82
2023-06-20T10:49:30.372Z,8.30
2023-06-20T10:51:59.062Z,6.00
2023-06-20T10:54:35.686Z,7.05
2023-06-20T10:57:08.630Z,23.20
2023-06-20T10:59:37.127Z,7.63
2023-06-20T11:02:09.539Z,6.95
2023-06-20T11:04:39.482Z,5.22
2023-06-20T11:07:42.976Z,5.22
2023-06-20T11:10:19.061Z,10.13
2023-06-20T11:12:48.647Z,8.40
2023-06-20T11:15:27.920Z,5.82
2023-06-20T11:17:57.350Z,9.57
2023-06-20T11:20:27.228Z,7.25
2023-06-20T11:22:57.432Z,5.47
2023-06-20T11:25:27.390Z,5.05
2023-06-20T11:27:57.078Z,3.30
2023-06-20T11:30:31.152Z,5.45
2023-06-20T11:33:04.984Z,3.58
2023-06-20T11:35:45.445Z,6.50
2023-06-20T11:38:18.233Z,8.05
2023-06-20T11:40:47.335Z,8.65
2023-06-20T11:43:28.268Z,5.30
2023-06-20T11:46:05.572Z,4.82
2023-06-20T11:48:34.085Z,3.70
2023-06-20T11:51:04.359Z,6.63
2023-06-20T11:53:36.265Z,5.78
2023-06-20T11:56:12.506Z,5.38
2023-06-20T11:58:44.087Z,4.60
2023-06-20T12:01:17.780Z,6.03
2023-06-20T12:03:46.985Z,9.50
2023-06-20T12:06:51.917Z,10.55
2023-06-20T12:09:20.128Z,13.48
2023-06-20T12:11:50.465Z,18.08
2023-06-20T12:14:20.505Z,13.95
2023-06-20T12:16:48.713Z,9.50
2023-06-20T12:19:18.048Z,8.02
2023-06-20T12:21:46.209Z,5.57
2023-06-20T12:24:14.709Z,5.82
2023-06-20T12:26:43.333Z,9.45
2023-06-20T12:29:11.484Z,5.18
2023-06-20T12:31:40.986Z,6.35
2023-06-20T12:34:09.171Z,4.50
2023-06-20T12:36:37.428Z,4.65
2023-06-20T12:39:05.609Z,2.88
2023-06-20T12:41:35.281Z,4.82
2023-06-20T12:44:04.085Z,4.15
2023-06-20T12:46:32.453Z,6.38
2023-06-20T12:49:02.156Z,5.63
2023-06-20T12:51:32.066Z,4.60
2023-06-20T12:54:01.221Z,3.88
2023-06-20T12:56:29.347Z,4.50
2023-06-20T12:58:58.323Z,5.78
2023-06-20T13:01:26.471Z,2.85
2023-06-20T13:03:55.039Z,5.82
2023-06-20T13:06:24.627Z,5.68
2023-06-20T13:08:52.776Z,3.90
2023-06-20T13:11:21.583Z,3.60
2023-06-20T13:13:49.878Z,5.57
2023-06-20T13:16:19.747Z,3.83
2023-06-20T13:18:48.229Z,4.00
2023-06-20T13:21:16.748Z,2.58
2023-06-20T13:23:59.855Z,3.40
2023-06-20T13:26:35.164Z,5.43
2023-06-20T13:29:03.539Z,3.45
2023-06-20T13:31:31.671Z,3.17
2023-06-20T13:33:59.790Z,9.35
2023-06-20T13:36:29.117Z,3.13
2023-06-20T13:38:59.297Z,5.32
2023-06-20T13:41:27.411Z,3.00
2023-06-20T13:43:55.654Z,4.47
2023-06-20T13:46:23.848Z,3.10
2023-06-20T13:48:52.814Z,5.38
2023-06-20T13:51:21.380Z,4.72
2023-06-20T13:53:50.446Z,4.15
2023-06-20T13:56:24.168Z,3.90
2023-06-20T13:58:52.603Z,3.60
2023-06-20T14:01:23.719Z,3.38
2023-06-20T14:03:52.298Z,4.75
2023-06-20T14:06:20.995Z,4.72
2023-06-20T14:08:50.350Z,7.07
2023-06-20T14:11:19.923Z,4.95
2023-06-20T14:13:47.991Z,3.55
2023-06-20T14:16:16.565Z,4.45
2023-06-20T14:18:44.829Z,3.53
2023-06-20T14:21:13.899Z,13.07
2023-06-20T14:23:46.275Z,7.32
2023-06-20T14:26:17.211Z,11.10
2023-06-20T14:28:47.933Z,9.30
2023-06-20T14:31:16.711Z,10.82
2023-06-20T14:33:47.922Z,12.75
2023-06-20T14:36:16.413Z,8.45
2023-06-20T14:38:48.994Z,6.40
2023-06-20T14:41:17.527Z,3.75
2023-06-20T14:43:47.806Z,6.60
2023-06-20T14:46:16.400Z,6.65
2023-06-20T14:48:45.031Z,6.85
2023-06-20T14:51:13.339Z,7.95
2023-06-20T14:53:44.117Z,8.10
2023-06-20T14:56:12.229Z,8.13
2023-06-20T14:58:40.562Z,8.82
2023-06-20T15:01:10.178Z,10.38
2023-06-20T15:03:38.612Z,13.00
2023-06-20T15:06:06.880Z,11.10
2023-06-20T15:08:34.955Z,13.27
2023-06-20T15:11:10.393Z,12.82
2023-06-20T15:13:38.461Z,14.98
2023-06-20T15:16:06.721Z,16.50
2023-06-20T15:18:38.589Z,21.55
2023-06-20T15:21:07.632Z,12.10
2023-06-20T15:23:35.808Z,12.77
2023-06-20T15:26:03.823Z,14.10
2023-06-20T15:28:31.959Z,11.20
2023-06-20T15:31:01.704Z,11.73
2023-06-20T15:33:29.926Z,12.38
2023-06-20T15:36:01.316Z,10.40
2023-06-20T15:38:29.597Z,11.20
2023-06-20T15:40:57.602Z,12.60
2023-06-20T15:43:25.666Z,10.70
2023-06-20T15:45:53.752Z,11.25
2023-06-20T15:48:24.980Z,11.23
2023-06-20T15:50:53.231Z,15.50
2023-06-20T15:53:22.870Z,9.73
2023-06-20T15:55:50.877Z,11.73
2023-06-20T15:58:19.651Z,10.95
2023-06-20T16:00:47.953Z,12.05
2023-06-20T16:03:16.586Z,14.52
2023-06-20T16:05:44.903Z,12.13
2023-06-20T16:08:13.050Z,11.90
2023-06-20T16:10:42.556Z,14.43
2023-06-20T16:13:11.849Z,19.55
2023-06-20T16:15:39.886Z,14.95
2023-06-20T16:18:08.116Z,19.40
2023-06-20T16:20:36.469Z,14.50
2023-06-20T16:23:04.602Z,12.05
2023-06-20T16:25:32.876Z,20.45
2023-06-20T16:28:03.176Z,15.63
2023-06-20T16:30:31.253Z,12.05
2023-06-20T16:33:03.436Z,12.82
2023-06-20T16:35:32.587Z,9.75
2023-06-20T16:38:00.805Z,11.93
2023-06-20T16:40:28.894Z,11.05
2023-06-20T16:42:57.084Z,14.40
2023-06-20T16:45:27.357Z,11.25
2023-06-20T16:47:55.541Z,11.07
2023-06-20T16:50:25.982Z,10.10
2023-06-20T16:52:54.391Z,9.98
2023-06-20T16:55:22.463Z,13.65
2023-06-20T16:57:50.547Z,12.35
2023-06-20T17:00:19.719Z,11.32
2023-06-20T17:02:49.277Z,13.90
2023-06-20T17:05:17.573Z,6.55
2023-06-20T17:07:45.593Z,10.57
2023-06-20T17:10:13.593Z,10.13
2023-06-20T17:12:41.794Z,8.35
2023-06-20T17:15:10.631Z,10.77
2023-06-20T17:17:40.121Z,9.88
2023-06-20T17:20:10.270Z,10.77
2023-06-20T17:22:38.649Z,11.52
2023-06-20T17:25:07.560Z,10.50
2023-06-20T17:27:35.594Z,10.75
2023-06-20T17:30:03.779Z,8.85
2023-06-20T17:32:32.007Z,11.98
2023-06-20T17:35:00.187Z,9.75
2023-06-20T17:37:29.566Z,11.15
2023-06-20T17:39:57.632Z,12.40
2023-06-20T17:42:25.984Z,13.25
2023-06-20T17:44:54.027Z,12.05
2023-06-20T17:47:22.190Z,9.55
2023-06-20T17:49:50.414Z,10.07
2023-06-20T17:52:18.972Z,11.88
2023-06-20T17:54:48.408Z,9.68
2023-06-20T17:57:16.523Z,8.18
2023-06-20T17:59:44.665Z,7.30
2023-06-20T18:02:18.565Z,7.03
2023-06-20T18:04:46.920Z,7.32
2023-06-20T18:07:15.721Z,8.90
2023-06-20T18:09:48.645Z,9.77
2023-06-20T18:12:19.520Z,6.53
2023-06-20T18:14:47.786Z,6.88
2023-06-20T18:17:18.356Z,6.88
2023-06-20T18:19:56.450Z,13.20
2023-06-20T18:22:26.648Z,6.72
2023-06-20T18:25:04.128Z,7.40
2023-06-20T18:27:53.884Z,9.40
2023-06-20T18:30:26.120Z,7.32
2023-06-20T18:32:59.391Z,8.10
2023-06-20T18:35:48.677Z,6.75
2023-06-20T18:38:19.520Z,8.25
2023-06-20T18:40:49.026Z,7.43
2023-06-20T18:43:20.943Z,6.72
2023-06-20T18:45:50.841Z,8.70
2023-06-20T18:48:19.269Z,7.90
2023-06-20T18:50:48.988Z,6.43
2023-06-20T18:53:19.778Z,10.18
2023-06-20T18:55:50.457Z,8.20
2023-06-20T18:58:20.511Z,7.20
2023-06-20T19:00:49.564Z,11.65
2023-06-20T19:03:21.776Z,9.02
2023-06-20T19:05:52.580Z,10.70
2023-06-20T19:08:20.952Z,8.75
2023-06-20T19:10:51.686Z,11.45
2023-06-20T19:13:24.456Z,8.45
2023-06-20T19:15:55.328Z,10.80
2023-06-20T19:18:25.228Z,11.63
2023-06-20T19:21:00.419Z,8.00
2023-06-20T19:23:28.962Z,10.52
2023-06-20T19:25:58.630Z,11.90
2023-06-20T19:28:29.610Z,8.60
2023-06-20T19:31:02.885Z,8.50
2023-06-20T19:33:31.299Z,13.40
2023-06-20T19:36:00.115Z,9.75
2023-06-20T19:38:29.850Z,11.52
2023-06-20T19:41:00.424Z,11.65
2023-06-20T19:43:29.906Z,9.80
2023-06-20T19:46:00.094Z,10.80
2023-06-20T19:48:30.811Z,11.50
2023-06-20T19:51:04.386Z,9.50
2023-06-20T19:53:34.703Z,10.05
2023-06-20T19:56:05.675Z,12.65
2023-06-20T19:58:56.423Z,10.13
2023-06-20T20:01:27.511Z,12.50
2023-06-20T20:03:57.501Z,8.75
2023-06-20T20:06:27.328Z,12.23
2023-06-20T20:08:57.080Z,13.32
2023-06-20T20:11:26.041Z,9.93
2023-06-20T20:14:02.266Z,9.02
2023-06-20T20:16:32.570Z,11.32
2023-06-20T20:19:02.173Z,10.02
2023-06-20T20:21:31.698Z,9.95
2023-06-20T20:24:02.204Z,10.65
2023-06-20T20:26:38.080Z,10.55
2023-06-20T20:29:35.203Z,11.73
2023-06-20T20:32:12.804Z,10.15
2023-06-20T20:34:46.559Z,11.95
2023-06-20T20:37:24.747Z,11.05
2023-06-20T20:40:13.034Z,9.10
2023-06-20T20:42:44.310Z,11.60
2023-06-20T20:45:41.243Z,14.35
2023-06-20T20:48:35.884Z,12.07
2023-06-20T20:52:02.846Z,14.98
2023-06-20T20:54:35.542Z,14.90
2023-06-20T20:57:27.528Z,13.02
2023-06-20T21:00:16.444Z,15.40
2023-06-20T21:03:00.046Z,14.63
2023-06-20T21:05:43.642Z,13.70
2023-06-20T21:08:31.938Z,16.73
2023-06-20T21:11:05.992Z,19.88
2023-06-20T21:13:35.889Z,17.70
2023-06-20T21:16:05.349Z,13.80
2023-06-20T21:18:37.532Z,13.85
2023-06-20T21:21:51.487Z,14.65
2023-06-20T21:24:26.485Z,13.23
2023-06-20T21:26:55.703Z,14.00
2023-06-20T21:29:28.103Z,14.15
2023-06-20T21:34:42.945Z,11.80
2023-06-20T21:40:00.532Z,13.43
2023-06-20T21:42:36.849Z,14.52
2023-06-20T21:45:08.819Z,15.85
2023-06-20T21:47:39.789Z,15.35
2023-06-20T21:50:13.156Z,14.27
2023-06-20T21:55:36.586Z,17.60
2023-06-20T21:58:09.218Z,14.80
2023-06-20T22:00:41.772Z,21.25
2023-06-20T22:03:14.978Z,17.05
2023-06-20T22:05:56.713Z,17.73
2023-06-20T22:08:30.602Z,17.90
2023-06-20T22:11:23.309Z,19.70
2023-06-20T22:13:51.601Z,24.70
2023-06-20T22:16:26.239Z,18.60
2023-06-20T22:18:55.300Z,21.23
2023-06-20T22:21:36.209Z,19.05
2023-06-20T22:24:05.932Z,21.85
2023-06-20T22:26:43.220Z,21.52
2023-06-20T22:29:14.645Z,25.58
2023-06-20T22:31:47.957Z,21.88
2023-06-20T22:34:17.575Z,20.45
2023-06-20T22:37:02.900Z,21.75
2023-06-20T22:39:34.365Z,24.00
2023-06-20T22:42:06.922Z,26.42
2023-06-20T22:44:38.267Z,24.92
2023-06-20T22:47:09.011Z,21.75
2023-06-20T22:50:01.588Z,24.13
2023-06-20T22:52:35.741Z,19.50
2023-06-20T22:55:06.011Z,20.55
2023-06-20T22:57:41.717Z,17.10
2023-06-20T23:00:15.137Z,15.85
2023-06-20T23:02:44.320Z,17.25
2023-06-20T23:05:13.579Z,17.60
2023-06-20T23:08:04.316Z,16.88
2023-06-20T23:10:33.339Z,18.73
2023-06-20T23:13:06.401Z,15.30
2023-06-20T23:15:35.476Z,17.45
2023-06-20T23:18:04.039Z,13.90
2023-06-20T23:20:40.050Z,16.65
2023-06-20T23:23:17.533Z,15.95
2023-06-20T23:25:50.276Z,15.68
2023-06-20T23:28:20.025Z,18.67
2023-06-20T23:30:52.100Z,16.60
2023-06-20T23:33:33.005Z,17.65
2023-06-20T23:36:03.365Z,20.42
2023-06-20T23:38:37.960Z,15.48
2023-06-20T23:41:06.529Z,15.48
2023-06-20T23:43:39.960Z,21.27
2023-06-20T23:46:29.479Z,21.48
2023-06-20T23:49:00.115Z,15.82
2023-06-20T23:51:29.686Z,18.23
2023-06-20T23:54:21.613Z,18.13
2023-06-20T23:56:53.597Z,21.15
2023-06-20T23:59:22.608Z,17.17
